Fremont, Nebraska
Current Conditions -  °F | °C
As of 6:15 AM on Sunday 23 Nov 2014 (Local Time) from KFET Reporting Station
Scattered Clouds Scattered Clouds  
Wind Chill: 52°   Ceiling: Unl
Heat Index: 52°   Visibility: 10mi
Dew Point: 49°   Wind: 6mph
Humidity: 90%   Direction: 180°S
Pressure: 29.46"   Gusts: NA
Location:  41.43°N, 96.5°W
Report Text: KFET 231215Z AUTO 18005KT 10SM SCT016 11/10 A2946 RMK AO2 T01120096
Loading
Personal Weather Stations






























Interactive Weather Map New forecast layout! Learn more

10-Day Weather Forecast

Advertisements
Track Severe Weather on mobile